sensor_id;sensor_type;location;lat;lon;timestamp;pressure;altitude;pressure_sealevel;temperature;humidity
66273;BME280;58450;52.150;4.466;2022-10-17T00:00:16;101532.78;;;13.99;100.00
66273;BME280;58450;52.150;4.466;2022-10-17T00:02:43;101526.72;;;13.97;100.00
66273;BME280;58450;52.150;4.466;2022-10-17T00:05:12;101543.13;;;13.96;100.00
66273;BME280;58450;52.150;4.466;2022-10-17T00:07:40;101534.31;;;13.87;100.00
66273;BME280;58450;52.150;4.466;2022-10-17T00:10:07;101529.44;;;13.82;100.00
66273;BME280;58450;52.150;4.466;2022-10-17T00:12:35;101526.97;;;13.81;100.00
66273;BME280;58450;52.150;4.466;2022-10-17T00:15:04;101537.78;;;13.81;100.00
66273;BME280;58450;52.150;4.466;2022-10-17T00:17:34;101537.78;;;13.81;100.00
66273;BME280;58450;52.150;4.466;2022-10-17T00:20:04;101538.81;;;13.80;100.00
66273;BME280;58450;52.150;4.466;2022-10-17T00:22:33;101532.75;;;13.78;100.00
66273;BME280;58450;52.150;4.466;2022-10-17T00:25:01;101522.97;;;13.77;100.00
66273;BME280;58450;52.150;4.466;2022-10-17T00:27:28;101513.72;;;13.71;100.00
66273;BME280;58450;52.150;4.466;2022-10-17T00:29:56;101501.88;;;13.72;100.00
66273;BME280;58450;52.150;4.466;2022-10-17T00:32:24;101513.72;;;13.71;100.00
66273;BME280;58450;52.150;4.466;2022-10-17T00:34:51;101500.19;;;13.71;100.00
66273;BME280;58450;52.150;4.466;2022-10-17T00:37:19;101513.09;;;13.69;100.00
66273;BME280;58450;52.150;4.466;2022-10-17T00:39:47;101510.19;;;13.70;100.00
66273;BME280;58450;52.150;4.466;2022-10-17T00:42:15;101519.53;;;13.68;100.00
66273;BME280;58450;52.150;4.466;2022-10-17T00:45:12;101523.94;;;13.69;100.00
66273;BME280;58450;52.150;4.466;2022-10-17T00:47:45;101519.13;;;13.71;100.00
66273;BME280;58450;52.150;4.466;2022-10-17T00:50:18;101522.69;;;13.71;100.00
66273;BME280;58450;52.150;4.466;2022-10-17T00:52:47;101528.09;;;13.71;100.00
66273;BME280;58450;52.150;4.466;2022-10-17T00:55:20;101526.63;;;13.69;100.00
66273;BME280;58450;52.150;4.466;2022-10-17T00:57:51;101525.56;;;13.70;100.00
66273;BME280;58450;52.150;4.466;2022-10-17T01:00:19;101524.97;;;13.68;100.00
66273;BME280;58450;52.150;4.466;2022-10-17T01:02:47;101514.53;;;13.65;100.00
66273;BME280;58450;52.150;4.466;2022-10-17T01:05:16;101517.59;;;13.62;100.00
66273;BME280;58450;52.150;4.466;2022-10-17T01:07:46;101514.25;;;13.59;100.00
66273;BME280;58450;52.150;4.466;2022-10-17T01:10:16;101507.16;;;13.58;100.00
66273;BME280;58450;52.150;4.466;2022-10-17T01:12:58;101503.59;;;13.58;100.00
66273;BME280;58450;52.150;4.466;2022-10-17T01:15:44;101499.22;;;13.57;100.00
66273;BME280;58450;52.150;4.466;2022-10-17T01:18:31;101505.50;;;13.57;100.00
66273;BME280;58450;52.150;4.466;2022-10-17T01:21:29;101500.25;;;13.56;100.00
66273;BME280;58450;52.150;4.466;2022-10-17T01:24:32;101500.63;;;13.53;100.00
66273;BME280;58450;52.150;4.466;2022-10-17T01:27:30;101481.91;;;13.51;100.00
66273;BME280;58450;52.150;4.466;2022-10-17T01:33:31;101464.66;;;13.52;100.00
66273;BME280;58450;52.150;4.466;2022-10-17T01:36:13;101464.47;;;13.54;100.00
66273;BME280;58450;52.150;4.466;2022-10-17T01:38:52;101464.28;;;13.55;100.00
66273;BME280;58450;52.150;4.466;2022-10-17T01:41:31;101458.03;;;13.55;100.00
66273;BME280;58450;52.150;4.466;2022-10-17T01:44:10;101458.03;;;13.55;100.00
66273;BME280;58450;52.150;4.466;2022-10-17T01:46:42;101454.28;;;13.56;100.00
66273;BME280;58450;52.150;4.466;2022-10-17T01:49:19;101458.88;;;13.55;100.00
66273;BME280;58450;52.150;4.466;2022-10-17T01:51:52;101458.22;;;13.53;100.00
66273;BME280;58450;52.150;4.466;2022-10-17T01:54:25;101458.66;;;13.57;100.00
66273;BME280;58450;52.150;4.466;2022-10-17T01:56:58;101458.88;;;13.55;100.00
66273;BME280;58450;52.150;4.466;2022-10-17T01:59:37;101464.94;;;13.57;100.00
66273;BME280;58450;52.150;4.466;2022-10-17T02:02:07;101461.56;;;13.55;100.00
66273;BME280;58450;52.150;4.466;2022-10-17T02:04:37;101448.44;;;13.52;100.00
66273;BME280;58450;52.150;4.466;2022-10-17T02:07:06;101450.13;;;13.53;100.00
66273;BME280;58450;52.150;4.466;2022-10-17T02:09:35;101448.06;;;13.55;100.00
66273;BME280;58450;52.150;4.466;2022-10-17T02:12:15;101448.06;;;13.55;100.00
66273;BME280;58450;52.150;4.466;2022-10-17T02:15:05;101438.91;;;13.56;100.00
66273;BME280;58450;52.150;4.466;2022-10-17T02:17:51;101436.84;;;13.58;100.00
66273;BME280;58450;52.150;4.466;2022-10-17T02:20:36;101431.25;;;13.60;100.00
66273;BME280;58450;52.150;4.466;2022-10-17T02:23:19;101439.19;;;13.62;100.00
66273;BME280;58450;52.150;4.466;2022-10-17T02:26:04;101423.78;;;13.62;100.00
66273;BME280;58450;52.150;4.466;2022-10-17T02:28:40;101418.19;;;13.64;100.00
66273;BME280;58450;52.150;4.466;2022-10-17T02:31:15;101419.00;;;13.64;100.00
66273;BME280;58450;52.150;4.466;2022-10-17T02:33:48;101413.81;;;13.63;100.00
66273;BME280;58450;52.150;4.466;2022-10-17T02:36:22;101414.44;;;13.65;100.00
66273;BME280;58450;52.150;4.466;2022-10-17T02:38:53;101417.78;;;13.67;100.00
66273;BME280;58450;52.150;4.466;2022-10-17T02:41:23;101418.19;;;13.64;100.00
66273;BME280;58450;52.150;4.466;2022-10-17T02:43:52;101425.25;;;13.65;100.00
66273;BME280;58450;52.150;4.466;2022-10-17T02:46:22;101424.03;;;13.67;100.00
66273;BME280;58450;52.150;4.466;2022-10-17T02:48:52;101425.31;;;13.71;100.00
66273;BME280;58450;52.150;4.466;2022-10-17T02:51:32;101450.75;;;13.77;100.00
66273;BME280;58450;52.150;4.466;2022-10-17T02:54:10;101448.50;;;13.81;100.00
66273;BME280;58450;52.150;4.466;2022-10-17T02:56:50;101451.47;;;13.86;100.00
66273;BME280;58450;52.150;4.466;2022-10-17T02:59:21;101456.66;;;13.87;100.00
66273;BME280;58450;52.150;4.466;2022-10-17T03:01:52;101457.31;;;13.89;100.00
66273;BME280;58450;52.150;4.466;2022-10-17T03:04:20;101459.63;;;13.93;100.00
66273;BME280;58450;52.150;4.466;2022-10-17T03:06:49;101471.16;;;14.01;100.00
66273;BME280;58450;52.150;4.466;2022-10-17T03:09:16;101469.94;;;14.04;100.00
66273;BME280;58450;52.150;4.466;2022-10-17T03:11:44;101458.06;;;14.05;100.00
66273;BME280;58450;52.150;4.466;2022-10-17T03:14:11;101447.72;;;14.09;100.00
66273;BME280;58450;52.150;4.466;2022-10-17T03:16:39;101436.03;;;14.08;100.00
66273;BME280;58450;52.150;4.466;2022-10-17T03:19:06;101443.13;;;14.09;100.00
66273;BME280;58450;52.150;4.466;2022-10-17T03:21:34;101442.72;;;14.12;100.00
66273;BME280;58450;52.150;4.466;2022-10-17T03:24:04;101441.47;;;14.15;100.00
66273;BME280;58450;52.150;4.466;2022-10-17T03:26:32;101442.59;;;14.21;100.00
66273;BME280;58450;52.150;4.466;2022-10-17T03:28:59;101447.41;;;14.25;100.00
66273;BME280;58450;52.150;4.466;2022-10-17T03:31:27;101459.50;;;14.29;100.00
66273;BME280;58450;52.150;4.466;2022-10-17T03:33:54;101444.31;;;14.28;100.00
66273;BME280;58450;52.150;4.466;2022-10-17T03:36:22;101444.53;;;14.33;100.00
66273;BME280;58450;52.150;4.466;2022-10-17T03:38:52;101433.72;;;14.33;100.00
66273;BME280;58450;52.150;4.466;2022-10-17T03:41:21;101451.44;;;14.36;100.00
66273;BME280;58450;52.150;4.466;2022-10-17T03:43:51;101459.75;;;14.34;100.00
66273;BME280;58450;52.150;4.466;2022-10-17T03:46:19;101447.72;;;14.37;100.00
66273;BME280;58450;52.150;4.466;2022-10-17T03:48:46;101447.50;;;14.39;100.00
66273;BME280;58450;52.150;4.466;2022-10-17T03:51:14;101453.56;;;14.41;100.00
66273;BME280;58450;52.150;4.466;2022-10-17T03:53:41;101453.75;;;14.39;100.00
66273;BME280;58450;52.150;4.466;2022-10-17T03:56:11;101448.78;;;14.43;100.00
66273;BME280;58450;52.150;4.466;2022-10-17T03:58:41;101453.78;;;14.46;100.00
66273;BME280;58450;52.150;4.466;2022-10-17T04:01:11;101455.28;;;14.48;100.00
66273;BME280;58450;52.150;4.466;2022-10-17T04:03:40;101454.25;;;14.50;100.00
66273;BME280;58450;52.150;4.466;2022-10-17T04:06:10;101460.09;;;14.53;100.00
66273;BME280;58450;52.150;4.466;2022-10-17T04:08:38;101465.50;;;14.53;100.00
66273;BME280;58450;52.150;4.466;2022-10-17T04:11:09;101468.88;;;14.55;100.00
66273;BME280;58450;52.150;4.466;2022-10-17T04:13:42;101473.47;;;14.55;100.00
66273;BME280;58450;52.150;4.466;2022-10-17T04:16:11;101471.19;;;14.58;100.00
66273;BME280;58450;52.150;4.466;2022-10-17T04:18:40;101468.25;;;14.60;100.00
66273;BME280;58450;52.150;4.466;2022-10-17T04:21:09;101477.66;;;14.64;100.00
66273;BME280;58450;52.150;4.466;2022-10-17T04:23:37;101473.50;;;14.68;100.00
66273;BME280;58450;52.150;4.466;2022-10-17T04:26:05;101470.66;;;14.70;100.00
66273;BME280;58450;52.150;4.466;2022-10-17T04:28:33;101474.00;;;14.72;100.00
66273;BME280;58450;52.150;4.466;2022-10-17T04:31:03;101477.78;;;14.77;100.00
66273;BME280;58450;52.150;4.466;2022-10-17T04:33:34;101496.16;;;14.82;100.00
66273;BME280;58450;52.150;4.466;2022-10-17T04:36:03;101502.00;;;14.86;100.00
66273;BME280;58450;52.150;4.466;2022-10-17T04:38:32;101497.22;;;14.88;100.00
66273;BME280;58450;52.150;4.466;2022-10-17T04:41:01;101483.28;;;14.91;100.00
66273;BME280;58450;52.150;4.466;2022-10-17T04:43:31;101504.78;;;14.92;100.00
66273;BME280;58450;52.150;4.466;2022-10-17T04:45:59;101486.63;;;14.93;100.00
66273;BME280;58450;52.150;4.466;2022-10-17T04:48:30;101488.09;;;14.96;100.00
66273;BME280;58450;52.150;4.466;2022-10-17T04:50:59;101483.75;;;15.01;100.00
66273;BME280;58450;52.150;4.466;2022-10-17T04:53:30;101489.97;;;15.02;100.00
66273;BME280;58450;52.150;4.466;2022-10-17T04:55:59;101491.25;;;14.99;100.00
66273;BME280;58450;52.150;4.466;2022-10-17T04:58:27;101497.94;;;15.03;100.00
66273;BME280;58450;52.150;4.466;2022-10-17T05:00:55;101495.22;;;15.03;100.00
66273;BME280;58450;52.150;4.466;2022-10-17T05:03:24;101490.63;;;15.04;100.00
66273;BME280;58450;52.150;4.466;2022-10-17T05:05:52;101495.84;;;15.05;100.00
66273;BME280;58450;52.150;4.466;2022-10-17T05:08:19;101487.72;;;15.05;100.00
66273;BME280;58450;52.150;4.466;2022-10-17T05:10:46;101495.63;;;15.07;100.00
66273;BME280;58450;52.150;4.466;2022-10-17T05:13:14;101490.66;;;15.11;100.00
66273;BME280;58450;52.150;4.466;2022-10-17T05:15:42;101510.06;;;15.14;100.00
66273;BME280;58450;52.150;4.466;2022-10-17T05:18:09;101528.25;;;15.20;100.00
66273;BME280;58450;52.150;4.466;2022-10-17T05:20:38;101534.13;;;15.24;100.00
66273;BME280;58450;52.150;4.466;2022-10-17T05:23:05;101536.44;;;15.27;100.00
66273;BME280;58450;52.150;4.466;2022-10-17T05:25:33;101537.06;;;15.29;100.00
66273;BME280;58450;52.150;4.466;2022-10-17T05:28:00;101539.78;;;15.29;100.00
66273;BME280;58450;52.150;4.466;2022-10-17T05:30:27;101528.94;;;15.29;100.00
66273;BME280;58450;52.150;4.466;2022-10-17T05:32:55;101531.22;;;15.32;100.00
66273;BME280;58450;52.150;4.466;2022-10-17T05:35:22;101522.25;;;15.32;100.00
66273;BME280;58450;52.150;4.466;2022-10-17T05:37:51;101529.97;;;15.35;100.00
66273;BME280;58450;52.150;4.466;2022-10-17T05:40:18;101532.91;;;15.33;100.00
66273;BME280;58450;52.150;4.466;2022-10-17T05:42:46;101533.72;;;15.34;100.00
66273;BME280;58450;52.150;4.466;2022-10-17T05:45:15;101530.19;;;15.33;100.00
66273;BME280;58450;52.150;4.466;2022-10-17T05:47:42;101527.47;;;15.33;100.00
66273;BME280;58450;52.150;4.466;2022-10-17T05:50:10;101516.81;;;15.32;100.00
66273;BME280;58450;52.150;4.466;2022-10-17T05:52:37;101532.91;;;15.33;100.00
66273;BME280;58450;52.150;4.466;2022-10-17T05:55:07;101521.44;;;15.31;100.00
66273;BME280;58450;52.150;4.466;2022-10-17T05:57:35;101530.78;;;15.29;100.00
66273;BME280;58450;52.150;4.466;2022-10-17T06:00:04;101529.97;;;15.28;100.00
66273;BME280;58450;52.150;4.466;2022-10-17T06:02:32;101517.44;;;15.27;100.00
66273;BME280;58450;52.150;4.466;2022-10-17T06:05:00;101526.41;;;15.28;100.00
66273;BME280;58450;52.150;4.466;2022-10-17T06:07:27;101526.63;;;15.26;100.00
66273;BME280;58450;52.150;4.466;2022-10-17T06:09:54;101542.25;;;15.24;100.00
66273;BME280;58450;52.150;4.466;2022-10-17T06:12:25;101538.91;;;15.22;100.00
66273;BME280;58450;52.150;4.466;2022-10-17T06:14:52;101545.16;;;15.22;100.00
66273;BME280;58450;52.150;4.466;2022-10-17T06:17:20;101568.72;;;15.22;100.00
66273;BME280;58450;52.150;4.466;2022-10-17T06:19:47;101549.94;;;15.20;100.00
66273;BME280;58450;52.150;4.466;2022-10-17T06:22:15;101550.38;;;15.24;100.00
66273;BME280;58450;52.150;4.466;2022-10-17T06:24:42;101565.22;;;15.28;100.00
66273;BME280;58450;52.150;4.466;2022-10-17T06:27:10;101565.00;;;15.30;100.00
66273;BME280;58450;52.150;4.466;2022-10-17T06:29:38;101556.44;;;15.26;100.00
66273;BME280;58450;52.150;4.466;2022-10-17T06:32:06;101554.56;;;15.27;100.00
66273;BME280;58450;52.150;4.466;2022-10-17T06:34:34;101551.66;;;15.28;100.00
66273;BME280;58450;52.150;4.466;2022-10-17T06:37:01;101567.72;;;15.30;100.00
66273;BME280;58450;52.150;4.466;2022-10-17T06:39:28;101575.03;;;15.29;100.00
66273;BME280;58450;52.150;4.466;2022-10-17T06:41:59;101571.91;;;15.32;100.00
66273;BME280;58450;52.150;4.466;2022-10-17T06:44:26;101572.16;;;15.38;100.00
66273;BME280;58450;52.150;4.466;2022-10-17T06:46:58;101577.34;;;15.39;100.00
66273;BME280;58450;52.150;4.466;2022-10-17T06:49:26;101570.72;;;15.42;100.00
66273;BME280;58450;52.150;4.466;2022-10-17T06:51:54;101572.16;;;15.44;100.00
66273;BME280;58450;52.150;4.466;2022-10-17T06:54:22;101580.53;;;15.49;100.00
66273;BME280;58450;52.150;4.466;2022-10-17T06:56:49;101576.78;;;15.50;100.00
66273;BME280;58450;52.150;4.466;2022-10-17T06:59:17;101579.09;;;15.54;100.00
66273;BME280;58450;52.150;4.466;2022-10-17T07:01:44;101588.06;;;15.54;100.00
66273;BME280;58450;52.150;4.466;2022-10-17T07:04:13;101597.47;;;15.58;100.00
66273;BME280;58450;52.150;4.466;2022-10-17T07:06:40;101598.31;;;15.59;100.00
66273;BME280;58450;52.150;4.466;2022-10-17T07:09:08;101607.91;;;15.61;100.00
66273;BME280;58450;52.150;4.466;2022-10-17T07:11:36;101638.78;;;15.60;100.00
66273;BME280;58450;52.150;4.466;2022-10-17T07:14:03;101650.69;;;15.59;100.00
66273;BME280;58450;52.150;4.466;2022-10-17T07:16:31;101654.50;;;15.65;100.00
66273;BME280;58450;52.150;4.466;2022-10-17T07:18:58;101657.63;;;15.69;100.00
66273;BME280;58450;52.150;4.466;2022-10-17T07:21:27;101675.19;;;15.73;100.00
66273;BME280;58450;52.150;4.466;2022-10-17T07:23:54;101680.59;;;15.73;100.00
66273;BME280;58450;52.150;4.466;2022-10-17T07:26:22;101699.19;;;15.76;100.00
66273;BME280;58450;52.150;4.466;2022-10-17T07:28:52;101700.69;;;15.78;100.00
66273;BME280;58450;52.150;4.466;2022-10-17T07:31:21;101714.03;;;15.80;100.00
66273;BME280;58450;52.150;4.466;2022-10-17T07:33:50;101711.97;;;15.82;100.00
66273;BME280;58450;52.150;4.466;2022-10-17T07:36:18;101720.56;;;15.86;100.00
66273;BME280;58450;52.150;4.466;2022-10-17T07:38:47;101733.56;;;15.90;100.00
66273;BME280;58450;52.150;4.466;2022-10-17T07:41:15;101737.94;;;15.91;100.00
66273;BME280;58450;52.150;4.466;2022-10-17T07:43:44;101746.31;;;15.97;100.00
66273;BME280;58450;52.150;4.466;2022-10-17T07:46:11;101743.84;;;16.02;100.00
66273;BME280;58450;52.150;4.466;2022-10-17T07:48:39;101752.47;;;16.12;100.00
66273;BME280;58450;52.150;4.466;2022-10-17T07:51:08;101770.03;;;16.23;100.00
66273;BME280;58450;52.150;4.466;2022-10-17T07:53:36;101806.03;;;16.32;100.00
66273;BME280;58450;52.150;4.466;2022-10-17T07:56:08;101794.16;;;16.46;100.00
66273;BME280;58450;52.150;4.466;2022-10-17T07:58:36;101793.34;;;16.46;100.00
66273;BME280;58450;52.150;4.466;2022-10-17T08:01:06;101797.72;;;16.47;100.00
66273;BME280;58450;52.150;4.466;2022-10-17T08:03:39;101797.50;;;16.48;100.00
66273;BME280;58450;52.150;4.466;2022-10-17T08:06:07;101801.09;;;16.49;100.00
66273;BME280;58450;52.150;4.466;2022-10-17T08:08:35;101802.31;;;16.46;100.00
66273;BME280;58450;52.150;4.466;2022-10-17T08:11:05;101788.31;;;16.43;100.00
66273;BME280;58450;52.150;4.466;2022-10-17T08:13:35;101806.06;;;16.45;100.00
66273;BME280;58450;52.150;4.466;2022-10-17T08:16:05;101811.09;;;16.42;100.00
66273;BME280;58450;52.150;4.466;2022-10-17T08:18:34;101806.25;;;16.37;100.00
66273;BME280;58450;52.150;4.466;2022-10-17T08:21:04;101808.97;;;16.37;100.00
66273;BME280;58450;52.150;4.466;2022-10-17T08:23:33;101799.56;;;16.33;100.00
66273;BME280;58450;52.150;4.466;2022-10-17T08:26:03;101784.31;;;16.32;100.00
66273;BME280;58450;52.150;4.466;2022-10-17T08:28:37;101777.38;;;16.29;100.00
66273;BME280;58450;52.150;4.466;2022-10-17T08:31:08;101772.19;;;16.34;100.00
66273;BME280;58450;52.150;4.466;2022-10-17T08:33:37;101753.38;;;16.33;100.00
66273;BME280;58450;52.150;4.466;2022-10-17T08:36:05;101756.94;;;16.33;100.00
66273;BME280;58450;52.150;4.466;2022-10-17T08:38:35;101765.28;;;16.32;100.00
66273;BME280;58450;52.150;4.466;2022-10-17T08:41:12;101764.84;;;16.28;100.00
66273;BME280;58450;52.150;4.466;2022-10-17T08:43:50;101762.97;;;16.29;100.00
66273;BME280;58450;52.150;4.466;2022-10-17T08:46:30;101755.03;;;16.27;100.00
66273;BME280;58450;52.150;4.466;2022-10-17T08:49:03;101739.34;;;16.29;100.00
66273;BME280;58450;52.150;4.466;2022-10-17T08:51:43;101737.91;;;16.27;100.00
66273;BME280;58450;52.150;4.466;2022-10-17T08:54:18;101756.69;;;16.28;100.00
66273;BME280;58450;52.150;4.466;2022-10-17T08:56:49;101758.78;;;16.26;100.00
66273;BME280;58450;52.150;4.466;2022-10-17T08:59:24;101777.59;;;16.28;100.00
66273;BME280;58450;52.150;4.466;2022-10-17T09:01:58;101801.19;;;16.27;100.00
66273;BME280;58450;52.150;4.466;2022-10-17T09:04:40;101808.69;;;16.25;100.00
66273;BME280;58450;52.150;4.466;2022-10-17T09:07:21;101809.97;;;16.29;100.00
66273;BME280;58450;52.150;4.466;2022-10-17T09:10:04;101808.13;;;16.30;100.00
66273;BME280;58450;52.150;4.466;2022-10-17T09:12:46;101812.91;;;16.28;100.00
66273;BME280;58450;52.150;4.466;2022-10-17T09:16:01;101798.28;;;16.29;100.00
66273;BME280;58450;52.150;4.466;2022-10-17T09:18:59;101805.00;;;16.33;100.00
66273;BME280;58450;52.150;4.466;2022-10-17T09:21:41;101789.34;;;16.42;100.00
66273;BME280;58450;52.150;4.466;2022-10-17T09:24:15;101786.81;;;16.40;100.00
66273;BME280;58450;52.150;4.466;2022-10-17T09:26:47;101800.00;;;16.43;100.00
66273;BME280;58450;52.150;4.466;2022-10-17T09:29:20;101796.88;;;16.46;100.00
66273;BME280;58450;52.150;4.466;2022-10-17T09:31:56;101801.50;;;16.52;100.00
66273;BME280;58450;52.150;4.466;2022-10-17T09:34:31;101819.66;;;16.45;100.00
66273;BME280;58450;52.150;4.466;2022-10-17T09:36:59;101839.47;;;16.39;100.00
66273;BME280;58450;52.150;4.466;2022-10-17T09:39:28;101839.44;;;16.32;100.00
66273;BME280;58450;52.150;4.466;2022-10-17T09:41:58;101854.88;;;16.25;100.00
66273;BME280;58450;52.150;4.466;2022-10-17T09:44:29;101866.78;;;16.24;100.00
66273;BME280;58450;52.150;4.466;2022-10-17T09:47:14;101868.44;;;16.25;100.00
66273;BME280;58450;52.150;4.466;2022-10-17T09:49:49;101876.81;;;16.23;100.00
66273;BME280;58450;52.150;4.466;2022-10-17T09:52:19;101875.56;;;16.26;100.00
66273;BME280;58450;52.150;4.466;2022-10-17T09:54:50;101883.94;;;16.24;100.00
66273;BME280;58450;52.150;4.466;2022-10-17T09:57:20;101895.19;;;16.21;100.00
66273;BME280;58450;52.150;4.466;2022-10-17T09:59:56;101892.47;;;16.21;100.00
66273;BME280;58450;52.150;4.466;2022-10-17T10:02:27;101899.91;;;16.13;100.00
66273;BME280;58450;52.150;4.466;2022-10-17T10:04:59;101905.09;;;16.07;100.00
66273;BME280;58450;52.150;4.466;2022-10-17T10:07:30;101906.75;;;16.02;100.00
66273;BME280;58450;52.150;4.466;2022-10-17T10:10:00;101918.19;;;15.97;100.00
66273;BME280;58450;52.150;4.466;2022-10-17T10:12:31;101911.03;;;15.68;100.00
66273;BME280;58450;52.150;4.466;2022-10-17T10:15:00;101923.50;;;15.62;100.00
66273;BME280;58450;52.150;4.466;2022-10-17T10:17:35;101925.19;;;15.63;100.00
66273;BME280;58450;52.150;4.466;2022-10-17T10:20:26;101939.13;;;15.60;100.00
66273;BME280;58450;52.150;4.466;2022-10-17T10:23:10;101947.97;;;15.47;100.00
66273;BME280;58450;52.150;4.466;2022-10-17T10:25:50;101943.56;;;15.24;100.00
66273;BME280;58450;52.150;4.466;2022-10-17T10:28:22;101938.81;;;15.11;100.00
66273;BME280;58450;52.150;4.466;2022-10-17T10:30:55;101928.97;;;15.25;100.00
66273;BME280;58450;52.150;4.466;2022-10-17T10:33:28;101933.63;;;15.31;100.00
66273;BME280;58450;52.150;4.466;2022-10-17T10:36:00;101934.66;;;15.30;100.00
66273;BME280;58450;52.150;4.466;2022-10-17T10:38:31;101937.19;;;15.32;100.00
66273;BME280;58450;52.150;4.466;2022-10-17T10:41:04;101954.75;;;15.36;100.00
66273;BME280;58450;52.150;4.466;2022-10-17T10:43:35;101951.47;;;15.41;100.00
66273;BME280;58450;52.150;4.466;2022-10-17T10:46:16;101956.25;;;15.39;100.00
66273;BME280;58450;52.150;4.466;2022-10-17T10:48:52;101964.19;;;15.40;100.00
66273;BME280;58450;52.150;4.466;2022-10-17T10:51:25;101958.81;;;15.47;100.00
66273;BME280;58450;52.150;4.466;2022-10-17T10:54:01;101962.00;;;15.50;100.00
66273;BME280;58450;52.150;4.466;2022-10-17T10:56:36;101959.72;;;15.54;100.00
66273;BME280;58450;52.150;4.466;2022-10-17T10:59:11;101959.34;;;15.57;100.00
66273;BME280;58450;52.150;4.466;2022-10-17T11:01:47;101952.06;;;15.58;100.00
66273;BME280;58450;52.150;4.466;2022-10-17T11:04:26;101961.09;;;15.65;100.00
66273;BME280;58450;52.150;4.466;2022-10-17T11:07:05;101949.09;;;15.74;100.00
66273;BME280;58450;52.150;4.466;2022-10-17T11:09:45;101944.84;;;15.87;100.00
66273;BME280;58450;52.150;4.466;2022-10-17T11:12:22;101944.69;;;15.95;100.00
66273;BME280;58450;52.150;4.466;2022-10-17T11:14:57;101946.22;;;16.04;100.00
66273;BME280;58450;52.150;4.466;2022-10-17T11:17:34;101962.59;;;16.11;100.00
66273;BME280;58450;52.150;4.466;2022-10-17T11:20:14;101977.00;;;16.12;100.00
66273;BME280;58450;52.150;4.466;2022-10-17T11:22:48;101985.34;;;16.10;100.00
66273;BME280;58450;52.150;4.466;2022-10-17T11:25:31;101991.03;;;16.15;100.00
66273;BME280;58450;52.150;4.466;2022-10-17T11:28:01;101993.47;;;16.32;100.00
66273;BME280;58450;52.150;4.466;2022-10-17T11:30:40;102001.25;;;16.42;100.00
66273;BME280;58450;52.150;4.466;2022-10-17T11:33:16;102008.13;;;16.37;100.00
66273;BME280;58450;52.150;4.466;2022-10-17T11:35:54;102012.13;;;16.42;100.00
66273;BME280;58450;52.150;4.466;2022-10-17T11:38:37;102013.84;;;16.49;100.00
66273;BME280;58450;52.150;4.466;2022-10-17T11:41:10;102019.75;;;16.60;100.00
66273;BME280;58450;52.150;4.466;2022-10-17T11:43:49;102041.56;;;16.66;100.00
66273;BME280;58450;52.150;4.466;2022-10-17T11:46:21;102039.50;;;16.68;100.00
66273;BME280;58450;52.150;4.466;2022-10-17T11:48:58;102044.28;;;16.66;100.00
66273;BME280;58450;52.150;4.466;2022-10-17T11:51:42;102031.13;;;16.70;100.00
66273;BME280;58450;52.150;4.466;2022-10-17T11:54:15;102039.13;;;16.78;100.00
66273;BME280;58450;52.150;4.466;2022-10-17T11:56:55;102038.50;;;16.76;100.00
66273;BME280;58450;52.150;4.466;2022-10-17T11:59:56;102040.81;;;16.79;100.00
66273;BME280;58450;52.150;4.466;2022-10-17T12:02:47;102036.63;;;16.77;100.00
66273;BME280;58450;52.150;4.466;2022-10-17T12:05:25;102031.38;;;16.75;100.00
66273;BME280;58450;52.150;4.466;2022-10-17T12:08:03;102047.25;;;16.72;100.00
66273;BME280;58450;52.150;4.466;2022-10-17T12:10:44;102048.97;;;16.79;100.00
66273;BME280;58450;52.150;4.466;2022-10-17T12:13:46;102046.50;;;16.84;100.00
66273;BME280;58450;52.150;4.466;2022-10-17T12:16:46;102045.69;;;16.91;100.00
66273;BME280;58450;52.150;4.466;2022-10-17T12:19:37;102047.38;;;16.92;100.00
66273;BME280;58450;52.150;4.466;2022-10-17T12:22:17;102044.25;;;16.95;100.00
66273;BME280;58450;52.150;4.466;2022-10-17T12:24:56;102048.66;;;16.96;100.00
66273;BME280;58450;52.150;4.466;2022-10-17T12:27:40;102063.75;;;16.98;100.00
66273;BME280;58450;52.150;4.466;2022-10-17T12:30:20;102062.34;;;17.09;100.00
66273;BME280;58450;52.150;4.466;2022-10-17T12:33:03;102063.34;;;17.02;100.00
66273;BME280;58450;52.150;4.466;2022-10-17T12:35:47;102068.59;;;17.03;100.00
66273;BME280;58450;52.150;4.466;2022-10-17T12:38:26;102065.09;;;17.09;100.00
66273;BME280;58450;52.150;4.466;2022-10-17T12:40:57;102064.22;;;17.09;100.00
66273;BME280;58450;52.150;4.466;2022-10-17T12:43:56;102066.91;;;17.02;100.00
66273;BME280;58450;52.150;4.466;2022-10-17T12:46:47;102083.75;;;16.91;100.00
66273;BME280;58450;52.150;4.466;2022-10-17T12:49:21;102073.31;;;16.94;100.00
66273;BME280;58450;52.150;4.466;2022-10-17T12:52:24;102081.69;;;16.93;100.00
66273;BME280;58450;52.150;4.466;2022-10-17T12:55:10;102074.34;;;16.93;100.00
66273;BME280;58450;52.150;4.466;2022-10-17T12:57:55;102072.47;;;16.94;100.00
66273;BME280;58450;52.150;4.466;2022-10-17T13:00:32;102077.06;;;16.93;100.00
66273;BME280;58450;52.150;4.466;2022-10-17T13:03:05;102087.41;;;16.98;100.00
66273;BME280;58450;52.150;4.466;2022-10-17T13:05:40;102089.91;;;16.99;100.00
66273;BME280;58450;52.150;4.466;2022-10-17T13:08:15;102081.56;;;17.01;100.00
66273;BME280;58450;52.150;4.466;2022-10-17T13:10:49;102087.19;;;16.99;100.00
66273;BME280;58450;52.150;4.466;2022-10-17T13:13:23;102091.69;;;16.92;100.00